createdAt,value
2019-02-16T00:01:34.356Z,0.90
2019-02-16T00:04:04.689Z,1.00
2019-02-16T00:06:35.109Z,0.90
2019-02-16T00:09:05.807Z,0.90
2019-02-16T00:11:36.289Z,0.90
2019-02-16T00:14:06.598Z,0.90
2019-02-16T00:16:36.916Z,0.90
2019-02-16T00:19:07.240Z,0.90
2019-02-16T00:21:37.570Z,0.90
2019-02-16T00:24:07.890Z,0.90
2019-02-16T00:26:38.347Z,0.90
2019-02-16T00:29:08.677Z,0.90
2019-02-16T00:31:39.055Z,0.90
2019-02-16T00:34:09.378Z,0.90
2019-02-16T00:36:39.763Z,0.80
2019-02-16T00:39:10.085Z,0.80
2019-02-16T00:41:40.373Z,0.70
2019-02-16T00:44:10.760Z,0.70
2019-02-16T00:46:41.695Z,0.70
2019-02-16T00:49:11.926Z,0.70
2019-02-16T00:51:42.306Z,0.70
2019-02-16T00:54:12.678Z,0.70
2019-02-16T00:56:43.012Z,0.70
2019-02-16T00:59:13.649Z,0.70
2019-02-16T01:01:44.003Z,0.70
2019-02-16T01:04:14.320Z,0.60
2019-02-16T01:06:44.691Z,0.60
2019-02-16T01:09:15.093Z,0.60
2019-02-16T01:11:45.401Z,0.50
2019-02-16T01:14:15.728Z,0.50
2019-02-16T01:16:46.072Z,0.50
2019-02-16T01:19:16.465Z,0.40
2019-02-16T01:21:46.771Z,0.40
2019-02-16T01:24:17.329Z,0.40
2019-02-16T01:26:47.601Z,0.40
2019-02-16T01:29:18.033Z,0.40
2019-02-16T01:31:48.566Z,0.30
2019-02-16T01:34:18.898Z,0.30
2019-02-16T01:36:49.372Z,0.30
2019-02-16T01:39:20.169Z,0.30
2019-02-16T01:41:50.457Z,0.30
2019-02-16T01:44:20.869Z,0.20
2019-02-16T01:46:51.336Z,0.20
2019-02-16T01:49:21.883Z,0.20
2019-02-16T01:51:52.383Z,0.20
2019-02-16T01:54:22.903Z,0.20
2019-02-16T01:56:53.493Z,0.20
2019-02-16T01:59:23.807Z,0.20
2019-02-16T02:01:54.496Z,0.10
2019-02-16T02:04:25.474Z,0.10
2019-02-16T02:06:58.979Z,0.10
2019-02-16T02:09:33.896Z,0.10
2019-02-16T02:12:23.679Z,0.10
2019-02-16T02:14:54.821Z,0.00
2019-02-16T02:17:25.912Z,0.00
2019-02-16T02:19:56.590Z,0.00
2019-02-16T02:22:26.960Z,0.00
2019-02-16T02:24:58.613Z,0.00
2019-02-16T02:27:30.880Z,-0.10
2019-02-16T02:30:01.195Z,-0.10
2019-02-16T02:32:31.487Z,-0.10
2019-02-16T02:35:03.649Z,-0.10
2019-02-16T02:37:34.803Z,-0.10
2019-02-16T02:40:06.220Z,-0.10
2019-02-16T02:42:37.008Z,-0.20
2019-02-16T02:45:08.999Z,-0.20
2019-02-16T02:47:42.317Z,-0.20
2019-02-16T02:50:13.283Z,-0.20
2019-02-16T02:52:43.740Z,-0.20
2019-02-16T02:55:14.312Z,-0.20
2019-02-16T02:57:46.199Z,-0.20
2019-02-16T03:00:17.191Z,-0.30
2019-02-16T03:02:48.073Z,-0.30
2019-02-16T03:05:18.497Z,-0.30
2019-02-16T03:07:49.921Z,-0.30
2019-02-16T03:10:20.605Z,-0.30
2019-02-16T03:12:50.910Z,-0.30
2019-02-16T03:15:21.301Z,-0.40
2019-02-16T03:17:52.490Z,-0.40
2019-02-16T03:20:22.967Z,-0.40
2019-02-16T03:23:23.266Z,-0.40
2019-02-16T03:26:41.679Z,-0.40
2019-02-16T03:29:52.099Z,-0.40
2019-02-16T03:32:53.173Z,-0.50
2019-02-16T03:35:57.537Z,-0.50
2019-02-16T03:38:55.347Z,-0.50
2019-02-16T03:41:25.669Z,-0.50
2019-02-16T03:43:55.979Z,-0.60
2019-02-16T03:46:26.309Z,-0.60
2019-02-16T03:48:56.620Z,-0.60
2019-02-16T03:51:26.951Z,-0.60
2019-02-16T03:53:57.341Z,-0.60
2019-02-16T03:56:27.761Z,-0.60
2019-02-16T03:58:58.098Z,-0.60
2019-02-16T04:01:28.406Z,-0.60
2019-02-16T04:03:58.751Z,-0.60
2019-02-16T04:06:29.071Z,-0.60
2019-02-16T04:08:59.512Z,-0.60
2019-02-16T04:11:29.798Z,-0.60
2019-02-16T04:14:00.136Z,-0.60
2019-02-16T04:16:30.502Z,-0.60
2019-02-16T04:19:00.852Z,-0.60
2019-02-16T04:21:31.207Z,-0.60
2019-02-16T04:24:01.500Z,-0.70
2019-02-16T04:26:31.834Z,-0.60
2019-02-16T04:29:02.134Z,-0.60
2019-02-16T04:31:32.522Z,-0.60
2019-02-16T04:34:02.818Z,-0.60
2019-02-16T04:36:33.145Z,-0.70
2019-02-16T04:39:04.426Z,-0.70
2019-02-16T04:41:34.756Z,-0.70
2019-02-16T04:44:05.155Z,-0.70
2019-02-16T04:46:35.479Z,-0.70
2019-02-16T04:49:05.801Z,-0.80
2019-02-16T04:51:36.139Z,-0.80
2019-02-16T04:54:06.410Z,-0.80
2019-02-16T04:56:36.729Z,-0.80
2019-02-16T04:59:07.025Z,-0.80
2019-02-16T05:01:37.409Z,-0.80
2019-02-16T05:04:07.761Z,-0.80
2019-02-16T05:06:38.104Z,-0.80
2019-02-16T05:09:08.478Z,-0.80
2019-02-16T05:11:38.810Z,-0.80
2019-02-16T05:14:09.111Z,-0.90
2019-02-16T05:16:39.474Z,-0.90
2019-02-16T05:19:09.819Z,-0.90
2019-02-16T05:21:40.158Z,-1.00
2019-02-16T05:24:10.491Z,-1.00
2019-02-16T05:26:40.937Z,-1.00
2019-02-16T05:29:11.371Z,-1.00
2019-02-16T05:31:41.792Z,-1.00
2019-02-16T05:34:12.102Z,-1.00
2019-02-16T05:36:42.537Z,-1.00
2019-02-16T05:39:14.103Z,-1.00
2019-02-16T05:41:44.449Z,-1.00
2019-02-16T05:44:15.087Z,-1.00
2019-02-16T05:46:45.700Z,-1.10
2019-02-16T05:49:16.142Z,-1.00
2019-02-16T05:51:46.715Z,-1.00
2019-02-16T05:54:17.236Z,-1.00
2019-02-16T05:56:47.575Z,-1.00
2019-02-16T05:59:17.961Z,-1.00
2019-02-16T06:01:53.791Z,-1.10
2019-02-16T06:04:20.206Z,-1.00
2019-02-16T06:06:50.534Z,-1.10
2019-02-16T06:09:20.842Z,-1.10
2019-02-16T06:11:51.220Z,-1.10
2019-02-16T06:14:21.558Z,-1.10
2019-02-16T06:16:52.008Z,-1.20
2019-02-16T06:19:22.360Z,-1.10
2019-02-16T06:21:52.812Z,-1.10
2019-02-16T06:24:23.098Z,-1.10
2019-02-16T06:26:53.408Z,-1.10
2019-02-16T06:29:23.716Z,-1.10
2019-02-16T06:31:54.074Z,-1.20
2019-02-16T06:34:24.401Z,-1.20
2019-02-16T06:36:54.687Z,-1.20
2019-02-16T06:39:25.010Z,-1.20
2019-02-16T06:41:55.395Z,-1.20
2019-02-16T06:44:25.723Z,-1.20
2019-02-16T06:46:56.005Z,-1.20
2019-02-16T06:49:26.342Z,-1.20
2019-02-16T06:51:56.626Z,-1.20
2019-02-16T06:54:26.949Z,-1.20
2019-02-16T06:57:07.147Z,-1.20
2019-02-16T06:59:37.513Z,-1.20
2019-02-16T07:02:07.814Z,-1.10
2019-02-16T07:04:38.137Z,-1.10
2019-02-16T07:07:08.540Z,-1.10
2019-02-16T07:09:38.858Z,-1.00
2019-02-16T07:12:09.153Z,-0.90
2019-02-16T07:14:39.505Z,-0.90
2019-02-16T07:17:41.094Z,-0.90
2019-02-16T07:20:11.546Z,-0.80
2019-02-16T07:22:41.883Z,-0.70
2019-02-16T07:25:12.183Z,-0.70
2019-02-16T07:27:42.505Z,-0.60
2019-02-16T07:30:13.021Z,-0.50
2019-02-16T07:32:43.351Z,-0.50
2019-02-16T07:35:13.648Z,-0.40
2019-02-16T07:37:43.981Z,-0.30
2019-02-16T07:40:14.300Z,-0.20
2019-02-16T07:42:56.581Z,-0.10
2019-02-16T07:45:56.510Z,0.00
2019-02-16T07:48:45.757Z,0.10
2019-02-16T07:51:37.752Z,0.20
2019-02-16T07:54:30.045Z,0.30
2019-02-16T07:57:19.287Z,0.50
2019-02-16T08:00:12.054Z,0.60
2019-02-16T08:03:19.714Z,0.70
2019-02-16T08:06:01.314Z,0.80
2019-02-16T08:08:59.607Z,0.90
2019-02-16T08:11:40.044Z,1.00
2019-02-16T08:14:17.360Z,1.10
2019-02-16T08:17:02.851Z,1.20
2019-02-16T08:20:06.244Z,1.30
2019-02-16T08:22:46.770Z,1.50
2019-02-16T08:25:44.511Z,1.60
2019-02-16T08:28:39.890Z,1.70
2019-02-16T08:31:41.368Z,1.80
2019-02-16T08:34:36.486Z,2.00
2019-02-16T08:37:16.814Z,2.10
2019-02-16T08:40:04.565Z,2.20
2019-02-16T08:42:53.889Z,2.30
2019-02-16T08:45:51.994Z,2.50
2019-02-16T08:48:38.221Z,2.60
2019-02-16T08:51:39.621Z,2.70
2019-02-16T08:54:32.099Z,2.80
2019-02-16T08:57:28.410Z,3.00
2019-02-16T09:00:26.749Z,3.10
2019-02-16T09:03:04.103Z,3.30
2019-02-16T09:05:40.433Z,3.40
2019-02-16T09:08:38.942Z,3.60
2019-02-16T09:11:27.810Z,3.80
2019-02-16T09:14:05.402Z,3.90
2019-02-16T09:17:00.465Z,4.00
2019-02-16T09:19:48.566Z,4.20
2019-02-16T09:22:34.010Z,4.30
2019-02-16T09:25:32.377Z,4.50
2019-02-16T09:28:20.873Z,4.60
2019-02-16T09:30:59.534Z,4.80
2019-02-16T09:33:48.767Z,5.00
2019-02-16T09:36:28.430Z,5.20
2019-02-16T09:39:17.706Z,5.30
2019-02-16T09:42:13.218Z,5.50
2019-02-16T09:45:08.323Z,5.70
2019-02-16T09:47:46.374Z,5.80
2019-02-16T09:50:35.649Z,6.00
2019-02-16T09:53:26.034Z,6.20
2019-02-16T09:56:28.306Z,6.30
2019-02-16T09:59:17.590Z,6.50
2019-02-16T10:01:55.673Z,6.70
2019-02-16T10:04:41.643Z,6.90
2019-02-16T10:07:22.995Z,7.10
2019-02-16T10:10:27.664Z,7.30
2019-02-16T10:13:19.258Z,7.40
2019-02-16T10:15:57.144Z,7.50
2019-02-16T10:18:45.157Z,7.70
2019-02-16T10:21:52.922Z,7.90
2019-02-16T10:25:00.565Z,8.00
2019-02-16T10:27:49.664Z,8.20
2019-02-16T10:30:38.437Z,8.40
2019-02-16T10:33:14.051Z,8.50
2019-02-16T10:36:03.320Z,8.70
2019-02-16T10:38:51.414Z,8.80
2019-02-16T10:41:33.280Z,9.00
2019-02-16T10:44:25.608Z,9.30
2019-02-16T10:47:13.854Z,9.80
2019-02-16T10:50:06.082Z,10.40
2019-02-16T10:52:58.168Z,11.10
2019-02-16T10:55:46.291Z,11.80
2019-02-16T10:58:51.831Z,12.40
2019-02-16T11:01:44.361Z,13.00
2019-02-16T11:04:38.238Z,13.60
2019-02-16T11:07:12.686Z,14.20
2019-02-16T11:10:01.926Z,14.70
2019-02-16T11:12:43.640Z,15.30
2019-02-16T11:15:45.979Z,15.80
2019-02-16T11:18:35.366Z,16.40
2019-02-16T11:21:34.770Z,17.10
2019-02-16T11:24:39.503Z,17.70
2019-02-16T11:27:31.563Z,18.40
2019-02-16T11:30:18.666Z,19.10
2019-02-16T11:33:06.596Z,19.60
2019-02-16T11:35:54.588Z,20.10
2019-02-16T11:38:43.977Z,20.60
2019-02-16T11:41:29.819Z,21.20
2019-02-16T11:44:21.413Z,21.70
2019-02-16T11:47:05.039Z,22.20
2019-02-16T11:49:53.220Z,22.60
2019-02-16T11:52:38.330Z,23.00
2019-02-16T11:55:30.864Z,23.30
2019-02-16T11:58:15.920Z,23.70
2019-02-16T12:01:11.399Z,24.10
2019-02-16T12:04:13.039Z,24.50
2019-02-16T12:06:50.064Z,24.90
2019-02-16T12:09:36.209Z,25.40
2019-02-16T12:12:25.638Z,25.80
2019-02-16T12:15:21.220Z,26.20
2019-02-16T12:18:13.263Z,26.80
2019-02-16T12:21:01.175Z,27.10
2019-02-16T12:23:39.613Z,27.20
2019-02-16T12:26:37.707Z,27.40
2019-02-16T12:29:33.825Z,27.50
2019-02-16T12:32:21.966Z,27.60
2019-02-16T12:35:20.526Z,27.60
2019-02-16T12:38:19.084Z,27.80
2019-02-16T12:41:04.291Z,27.80
2019-02-16T12:43:56.458Z,28.00
2019-02-16T12:46:54.624Z,28.20
2019-02-16T12:49:40.693Z,28.40
2019-02-16T12:52:18.126Z,28.60
2019-02-16T12:55:16.602Z,28.70
2019-02-16T12:58:00.708Z,29.10
2019-02-16T13:00:48.899Z,29.50
2019-02-16T13:03:32.957Z,29.70
2019-02-16T13:06:37.586Z,30.00
2019-02-16T13:09:20.276Z,30.30
2019-02-16T13:12:07.460Z,30.60
2019-02-16T13:15:03.895Z,30.80
2019-02-16T13:18:02.395Z,31.00
2019-02-16T13:20:45.896Z,31.20
2019-02-16T13:23:44.703Z,31.30
2019-02-16T13:26:40.410Z,31.10
2019-02-16T13:29:29.698Z,31.00
2019-02-16T13:32:19.051Z,31.30
2019-02-16T13:34:58.119Z,31.70
2019-02-16T13:37:46.477Z,31.90
2019-02-16T13:40:35.766Z,32.20
2019-02-16T13:43:37.369Z,32.50
2019-02-16T13:46:32.703Z,32.50
2019-02-16T13:49:10.383Z,32.60
2019-02-16T13:52:15.195Z,32.80
2019-02-16T13:54:53.586Z,33.10
2019-02-16T13:57:58.358Z,33.30
2019-02-16T14:00:53.491Z,33.40
2019-02-16T14:03:42.804Z,33.40
2019-02-16T14:06:20.781Z,33.20
2019-02-16T14:09:19.187Z,32.70
2019-02-16T14:12:07.369Z,32.10
2019-02-16T14:14:59.550Z,31.70
2019-02-16T14:17:47.050Z,31.20
2019-02-16T14:20:17.649Z,30.50
2019-02-16T14:22:48.883Z,29.90
2019-02-16T14:25:27.187Z,29.40
2019-02-16T14:27:57.758Z,29.10
2019-02-16T14:30:28.181Z,29.30
2019-02-16T14:32:58.637Z,29.80
2019-02-16T14:35:29.030Z,30.50
2019-02-16T14:38:13.609Z,31.10
2019-02-16T14:40:44.048Z,31.80
2019-02-16T14:43:14.507Z,32.50
2019-02-16T14:45:44.968Z,33.10
2019-02-16T14:48:15.671Z,33.50
2019-02-16T14:50:46.560Z,33.80
2019-02-16T14:53:17.118Z,33.90
2019-02-16T14:55:54.010Z,33.70
2019-02-16T14:58:19.841Z,33.40
2019-02-16T15:00:50.158Z,33.20
2019-02-16T15:03:20.894Z,33.40
2019-02-16T15:05:51.258Z,33.40
2019-02-16T15:08:21.702Z,33.40
2019-02-16T15:10:52.095Z,33.20
2019-02-16T15:13:22.425Z,33.10
2019-02-16T15:15:52.791Z,33.10
2019-02-16T15:18:24.211Z,33.20
2019-02-16T15:20:54.610Z,33.30
2019-02-16T15:23:24.940Z,33.00
2019-02-16T15:26:01.032Z,32.80
2019-02-16T15:28:27.423Z,32.60
2019-02-16T15:30:57.715Z,32.60
2019-02-16T15:33:28.069Z,32.70
2019-02-16T15:35:58.372Z,32.80
2019-02-16T15:38:28.749Z,32.80
2019-02-16T15:40:59.048Z,32.90
2019-02-16T15:43:30.869Z,32.80
2019-02-16T15:46:01.205Z,32.90
2019-02-16T15:48:31.674Z,32.90
2019-02-16T15:51:02.116Z,32.70
2019-02-16T15:53:32.865Z,32.60
2019-02-16T15:56:10.140Z,32.20
2019-02-16T15:58:37.578Z,31.30
2019-02-16T16:01:09.077Z,29.90
2019-02-16T16:03:39.397Z,28.40
2019-02-16T16:06:09.812Z,26.80
2019-02-16T16:08:59.264Z,25.50
2019-02-16T16:11:38.954Z,24.30
2019-02-16T16:14:21.515Z,23.20
2019-02-16T16:17:01.056Z,22.30
2019-02-16T16:19:41.118Z,21.50
2019-02-16T16:22:36.182Z,20.80
2019-02-16T16:25:37.642Z,20.10
2019-02-16T16:28:25.939Z,19.50
2019-02-16T16:31:03.464Z,18.90
2019-02-16T16:33:52.726Z,18.30
2019-02-16T16:36:41.134Z,17.90
2019-02-16T16:39:17.720Z,17.40
2019-02-16T16:42:10.139Z,17.00
2019-02-16T16:44:56.457Z,16.60
2019-02-16T16:47:57.764Z,16.20
2019-02-16T16:50:49.907Z,15.80
2019-02-16T16:53:57.440Z,15.40
2019-02-16T16:56:36.390Z,15.10
2019-02-16T16:59:24.173Z,14.70
2019-02-16T17:02:22.659Z,14.40
2019-02-16T17:05:04.207Z,14.10
2019-02-16T17:07:56.763Z,13.70
2019-02-16T17:10:46.065Z,13.50
2019-02-16T17:13:32.965Z,13.20
2019-02-16T17:16:25.712Z,12.90
2019-02-16T17:19:15.138Z,12.70
2019-02-16T17:21:54.199Z,12.50
2019-02-16T17:24:58.709Z,12.20
2019-02-16T17:27:42.133Z,12.00
2019-02-16T17:30:27.360Z,11.80
2019-02-16T17:33:22.409Z,11.60
2019-02-16T17:42:38.536Z,11.10
2019-02-16T17:45:27.146Z,10.90
2019-02-16T17:48:19.526Z,10.70
2019-02-16T17:51:21.093Z,10.50
2019-02-16T17:54:09.010Z,10.30
2019-02-16T17:57:04.010Z,10.20
2019-02-16T17:59:45.440Z,10.00
2019-02-16T18:02:31.273Z,9.80
2019-02-16T18:05:20.574Z,9.60
2019-02-16T18:08:19.102Z,9.50
2019-02-16T18:11:14.647Z,9.40
2019-02-16T18:13:57.923Z,9.20
2019-02-16T18:16:56.337Z,9.10
2019-02-16T18:19:48.746Z,9.00
2019-02-16T18:22:56.657Z,8.90
2019-02-16T18:25:36.998Z,8.70
2019-02-16T18:28:26.231Z,8.60
2019-02-16T18:31:24.812Z,8.50
2019-02-16T18:34:13.235Z,8.40
2019-02-16T18:37:04.340Z,8.30
2019-02-16T18:40:08.845Z,8.20
2019-02-16T18:42:56.774Z,8.20
2019-02-16T18:45:44.973Z,8.10
2019-02-16T18:48:40.252Z,8.00
2019-02-16T18:51:27.562Z,7.90
2019-02-16T18:54:11.896Z,7.80
2019-02-16T18:57:08.945Z,7.70
2019-02-16T19:00:07.076Z,7.60
2019-02-16T19:02:57.053Z,7.50
2019-02-16T19:05:37.635Z,7.40
2019-02-16T19:08:23.539Z,7.30
2019-02-16T19:11:23.271Z,7.20
2019-02-16T19:14:18.532Z,7.10
2019-02-16T19:17:04.816Z,7.00
2019-02-16T19:19:52.690Z,7.00
2019-02-16T19:22:48.433Z,6.90
2019-02-16T19:25:41.277Z,6.80
2019-02-16T19:28:21.942Z,6.70
2019-02-16T19:31:21.243Z,6.70
2019-02-16T19:34:16.601Z,6.60
2019-02-16T19:36:58.946Z,6.50
2019-02-16T19:39:44.695Z,6.40
2019-02-16T19:42:34.097Z,6.40
2019-02-16T19:45:29.774Z,6.30
2019-02-16T19:48:19.127Z,6.20
2019-02-16T19:51:08.724Z,6.20
2019-02-16T19:53:48.182Z,6.10
2019-02-16T19:56:33.677Z,6.00
2019-02-16T19:59:29.209Z,6.00
2019-02-16T20:02:22.760Z,5.90
2019-02-16T20:05:12.027Z,5.80
2019-02-16T20:07:47.632Z,5.70
2019-02-16T20:10:30.315Z,5.60
2019-02-16T20:13:25.163Z,5.50
2019-02-16T20:16:08.082Z,5.50
2019-02-16T20:19:12.998Z,5.50
2019-02-16T20:21:57.986Z,5.40
2019-02-16T20:25:06.126Z,5.40
2019-02-16T20:27:48.328Z,5.30
2019-02-16T20:30:37.405Z,5.20
2019-02-16T20:33:13.918Z,5.20
2019-02-16T20:36:06.082Z,5.10
2019-02-16T20:38:49.049Z,5.10
2019-02-16T20:41:33.272Z,5.10
2019-02-16T20:44:15.356Z,5.00
2019-02-16T20:47:03.322Z,5.00
2019-02-16T20:49:51.605Z,5.00
2019-02-16T20:52:49.847Z,5.00
2019-02-16T20:55:38.837Z,4.90
2019-02-16T20:58:21.707Z,4.90
2019-02-16T21:00:57.734Z,4.90
2019-02-16T21:03:37.793Z,4.80
2019-02-16T21:06:45.825Z,4.80
2019-02-16T21:09:35.125Z,4.70
2019-02-16T21:12:26.666Z,4.60
2019-02-16T21:15:19.158Z,4.60
2019-02-16T21:18:20.812Z,4.50
2019-02-16T21:21:10.097Z,4.40
2019-02-16T21:24:05.157Z,4.40
2019-02-16T21:26:46.052Z,4.30
2019-02-16T21:29:34.196Z,4.30
2019-02-16T21:32:23.459Z,4.20
2019-02-16T21:35:15.531Z,4.20
2019-02-16T21:38:20.002Z,4.10
2019-02-16T21:41:18.140Z,4.10
2019-02-16T21:44:13.874Z,4.00
2019-02-16T21:47:24.978Z,4.00
2019-02-16T21:50:05.343Z,3.90
2019-02-16T21:52:55.797Z,3.90
2019-02-16T21:55:40.472Z,3.80
2019-02-16T21:58:28.488Z,3.80
2019-02-16T22:01:21.026Z,3.70
2019-02-16T22:03:59.887Z,3.70
2019-02-16T22:06:44.950Z,3.70
2019-02-16T22:09:34.261Z,3.60
2019-02-16T22:12:17.020Z,3.60
2019-02-16T22:14:47.427Z,3.50
2019-02-16T22:17:21.028Z,3.50
2019-02-16T22:19:51.345Z,3.40
2019-02-16T22:22:21.684Z,3.40
2019-02-16T22:24:51.986Z,3.30
2019-02-16T22:27:22.322Z,3.30
2019-02-16T22:29:52.719Z,3.30
2019-02-16T22:32:23.039Z,3.30
2019-02-16T22:34:53.432Z,3.30
2019-02-16T22:37:23.754Z,3.30
2019-02-16T22:39:55.521Z,3.30
2019-02-16T22:42:25.921Z,3.20
2019-02-16T22:44:56.261Z,3.20
2019-02-16T22:47:26.642Z,3.20
2019-02-16T22:49:57.132Z,3.10
2019-02-16T22:52:27.555Z,3.10
2019-02-16T22:54:57.871Z,3.10
2019-02-16T22:57:28.403Z,3.10
2019-02-16T22:59:58.705Z,3.10
2019-02-16T23:02:29.208Z,3.10
2019-02-16T23:04:59.556Z,3.00
2019-02-16T23:07:30.013Z,3.00
2019-02-16T23:10:00.352Z,2.90
2019-02-16T23:12:30.931Z,2.90
2019-02-16T23:15:01.312Z,2.90
2019-02-16T23:17:31.849Z,2.90
2019-02-16T23:20:02.147Z,2.90
2019-02-16T23:22:32.472Z,2.90
2019-02-16T23:25:02.778Z,2.90
2019-02-16T23:27:33.331Z,2.90
2019-02-16T23:30:05.142Z,2.80
2019-02-16T23:32:36.706Z,2.80
2019-02-16T23:35:07.444Z,2.80
2019-02-16T23:37:37.849Z,2.80
2019-02-16T23:40:09.867Z,2.70
2019-02-16T23:42:40.269Z,2.70
2019-02-16T23:45:12.083Z,2.60
2019-02-16T23:47:42.568Z,2.60
2019-02-16T23:50:18.127Z,2.60
2019-02-16T23:52:48.716Z,2.50
2019-02-16T23:55:19.323Z,2.50
2019-02-16T23:57:50.157Z,2.50
